createdAt,value
2022-09-22T00:06:12.044Z,102132.81
2022-09-22T00:13:47.711Z,102132.66
2022-09-22T00:21:24.624Z,102121.72
2022-09-22T00:28:58.648Z,102122.34
2022-09-22T00:36:33.870Z,102118.44
2022-09-22T00:44:39.615Z,102120.75
2022-09-22T00:52:20.461Z,102120.22
2022-09-22T00:59:55.475Z,102116.31
2022-09-22T01:07:31.910Z,102124.84
2022-09-22T01:15:25.310Z,102108.34
2022-09-22T01:23:31.861Z,102112.38
2022-09-22T01:31:14.136Z,102109.38
2022-09-22T01:38:59.538Z,102113.63
2022-09-22T01:46:39.074Z,102107.97
2022-09-22T01:54:16.438Z,102107.50
2022-09-22T02:01:57.234Z,102108.16
2022-09-22T02:09:34.816Z,102101.63
2022-09-22T02:17:10.104Z,102105.63
2022-09-22T02:24:46.127Z,102113.34
2022-09-22T02:32:22.382Z,102113.97
2022-09-22T02:40:06.986Z,102118.91
2022-09-22T02:47:47.159Z,102104.34
2022-09-22T02:55:21.184Z,102110.22
2022-09-22T03:02:56.429Z,102103.69
2022-09-22T03:10:30.014Z,102099.75
2022-09-22T03:18:05.196Z,102102.25
2022-09-22T03:25:38.912Z,102105.56
2022-09-22T03:33:14.048Z,102101.84
2022-09-22T03:40:51.894Z,102104.34
2022-09-22T03:48:28.780Z,102098.81
2022-09-22T03:56:06.689Z,102096.78
2022-09-22T04:03:41.919Z,102092.09
2022-09-22T04:11:15.513Z,102090.03
2022-09-22T04:18:50.506Z,102082.69
2022-09-22T04:26:24.650Z,102090.38
2022-09-22T04:34:03.084Z,102095.41
2022-09-22T04:41:39.138Z,102097.53
2022-09-22T04:49:14.852Z,102096.34
2022-09-22T04:56:48.537Z,102096.94
2022-09-22T05:04:23.631Z,102097.69
2022-09-22T05:12:01.312Z,102104.78
2022-09-22T05:19:36.628Z,102099.16
2022-09-22T05:27:10.291Z,102105.38
2022-09-22T05:34:45.481Z,102112.53
2022-09-22T05:42:19.128Z,102110.84
2022-09-22T05:49:54.557Z,102114.66
2022-09-22T05:57:28.324Z,102114.03
2022-09-22T06:05:03.598Z,102119.78
2022-09-22T06:12:37.168Z,102119.16
2022-09-22T06:20:12.702Z,102124.19
2022-09-22T06:27:47.238Z,102130.84
2022-09-22T06:35:22.665Z,102131.44
2022-09-22T06:42:59.937Z,102127.94
2022-09-22T06:50:34.990Z,102130.97
2022-09-22T06:58:09.539Z,102123.09
2022-09-22T07:05:54.338Z,102120.34
2022-09-22T07:13:29.820Z,102127.06
2022-09-22T07:21:07.128Z,102120.94
2022-09-22T07:28:41.587Z,102120.84
2022-09-22T07:36:19.704Z,102112.97
2022-09-22T07:43:56.126Z,102108.09
2022-09-22T07:51:34.075Z,102113.94
2022-09-22T07:59:11.097Z,102113.56
2022-09-22T08:06:48.671Z,102112.09
2022-09-22T08:14:24.093Z,102121.47
2022-09-22T08:21:59.470Z,102107.84
2022-09-22T08:29:33.124Z,102116.63
2022-09-22T08:37:09.436Z,102113.94
2022-09-22T08:44:52.939Z,102128.16
2022-09-22T08:52:35.105Z,102129.78
2022-09-22T09:00:14.632Z,102127.91
2022-09-22T09:08:00.231Z,102127.22
2022-09-22T09:15:52.873Z,102121.78
2022-09-22T09:31:34.322Z,102115.34
2022-09-22T09:39:15.587Z,102109.84
2022-09-22T09:46:56.024Z,102107.53
2022-09-22T09:54:31.093Z,102101.44
2022-09-22T10:02:04.991Z,102098.34
2022-09-22T10:09:41.024Z,102096.75
2022-09-22T10:17:21.843Z,102098.53
2022-09-22T10:25:00.087Z,102098.34
2022-09-22T10:32:33.742Z,102091.66
2022-09-22T10:40:18.218Z,102097.81
2022-09-22T10:47:57.760Z,102096.88
2022-09-22T10:55:36.786Z,102094.13
2022-09-22T11:03:33.432Z,102088.09
2022-09-22T11:11:38.801Z,102074.69
2022-09-22T11:19:48.884Z,102079.56
2022-09-22T11:27:36.467Z,102070.75
2022-09-22T11:35:35.099Z,102068.09
2022-09-22T11:43:25.217Z,102055.28
2022-09-22T11:51:30.724Z,102045.97
2022-09-22T11:59:30.967Z,102043.09
2022-09-22T12:07:10.355Z,102043.03
2022-09-22T12:14:46.256Z,102032.09
2022-09-22T12:22:26.408Z,102023.22
2022-09-22T12:30:03.454Z,102017.75
2022-09-22T12:37:40.180Z,102011.38
2022-09-22T12:45:22.597Z,102009.50
2022-09-22T12:53:04.018Z,102010.34
2022-09-22T13:00:40.919Z,102002.13
2022-09-22T13:08:22.719Z,102001.28
2022-09-22T13:16:01.627Z,101993.31
2022-09-22T13:23:35.435Z,101996.06
2022-09-22T13:31:15.261Z,101980.03
2022-09-22T13:38:55.053Z,101978.56
2022-09-22T13:46:37.735Z,101970.22
2022-09-22T13:54:20.535Z,101968.81
2022-09-22T14:01:55.759Z,101958.28
2022-09-22T14:09:30.432Z,101952.75
2022-09-22T14:17:09.727Z,101942.56
2022-09-22T14:24:47.459Z,101947.00
2022-09-22T14:32:30.148Z,101945.34
2022-09-22T14:40:14.273Z,101939.34
2022-09-22T14:48:20.696Z,101938.09
2022-09-22T14:56:00.303Z,101937.06
2022-09-22T15:03:35.731Z,101933.34
2022-09-22T15:11:10.444Z,101931.50
2022-09-22T15:18:47.924Z,101928.75
2022-09-22T15:26:25.427Z,101918.88
2022-09-22T15:34:03.172Z,101914.31
2022-09-22T15:41:37.511Z,101917.06
2022-09-22T15:49:16.817Z,101913.50
2022-09-22T15:56:52.540Z,101910.66
2022-09-22T16:04:34.342Z,101913.31
2022-09-22T16:12:11.155Z,101898.91
2022-09-22T16:19:46.300Z,101896.13
2022-09-22T16:27:20.095Z,101893.22
2022-09-22T16:34:55.193Z,101885.84
2022-09-22T16:42:28.924Z,101890.00
2022-09-22T16:50:04.118Z,101894.16
2022-09-22T16:57:37.940Z,101884.72
2022-09-22T17:05:13.078Z,101894.16
2022-09-22T17:12:46.654Z,101899.97
2022-09-22T17:20:22.001Z,101884.31
2022-09-22T17:27:56.342Z,101890.88
2022-09-22T17:35:31.484Z,101882.47
2022-09-22T17:43:05.702Z,101880.91
2022-09-22T17:50:58.449Z,101874.97
2022-09-22T17:58:32.106Z,101872.66
2022-09-22T18:06:14.573Z,101870.47
2022-09-22T18:13:50.627Z,101877.09
2022-09-22T18:21:27.021Z,101891.78
2022-09-22T18:29:00.890Z,101895.09
2022-09-22T18:36:36.862Z,101888.19
2022-09-22T18:44:13.265Z,101884.16
2022-09-22T18:51:50.577Z,101882.03
2022-09-22T18:59:26.643Z,101890.63
2022-09-22T19:07:19.328Z,101895.75
2022-09-22T19:14:57.279Z,101889.00
2022-09-22T19:22:32.398Z,101891.19
2022-09-22T19:30:07.089Z,101898.69
2022-09-22T19:37:42.493Z,101891.09
2022-09-22T19:45:16.468Z,101889.75
2022-09-22T19:52:51.892Z,101887.84
2022-09-22T20:00:26.838Z,101887.66
2022-09-22T20:08:03.684Z,101888.16
2022-09-22T20:15:38.342Z,101881.47
2022-09-22T20:23:15.899Z,101878.22
2022-09-22T20:30:50.473Z,101880.78
2022-09-22T20:38:25.821Z,101882.13
2022-09-22T20:46:01.994Z,101881.69
2022-09-22T20:53:38.138Z,101887.47
2022-09-22T21:01:13.529Z,101883.56
2022-09-22T21:09:06.527Z,101889.41
2022-09-22T21:16:40.568Z,101880.00
2022-09-22T21:24:17.281Z,101876.13
2022-09-22T21:31:50.986Z,101881.25
2022-09-22T21:39:26.119Z,101872.06
2022-09-22T21:46:59.971Z,101872.56
2022-09-22T21:54:34.984Z,101874.97
2022-09-22T22:02:08.673Z,101874.47
2022-09-22T22:09:43.947Z,101880.28
2022-09-22T22:17:17.638Z,101872.78
2022-09-22T22:24:52.858Z,101867.88
2022-09-22T22:32:26.494Z,101873.00
2022-09-22T22:40:02.000Z,101863.19
2022-09-22T22:47:35.686Z,101863.00
2022-09-22T22:55:11.233Z,101860.81
2022-09-22T23:02:44.841Z,101858.63
2022-09-22T23:10:20.185Z,101853.66
2022-09-22T23:17:53.946Z,101863.91
2022-09-22T23:25:29.119Z,101851.16
2022-09-22T23:33:02.762Z,101848.22
2022-09-22T23:40:38.487Z,101838.19
2022-09-22T23:48:12.318Z,101834.22
2022-09-22T23:55:47.582Z,101826.94
